Time;durP1;ratioP1;P1;durP2;ratioP2;P2;SDS_P1;SDS_P2;PMS_P1;PMS_P2;Temp;Humidity;BMP_temperature;BMP_pressure;BME280_temperature;BME280_humidity;BME280_pressure;Samples;Min_cycle;Max_cycle;Signal;HPM_P1;HPM_P2
2022/12/15 00:39:36;;;;;;;20.80;13.20;;;-0.40;99.90;;;;;;5094098;28;20491;-54
2022/12/15 00:42:03;;;;;;;22.85;14.60;;;-0.30;99.90;;;;;;5096782;28;20418;-55
2022/12/15 00:44:30;;;;;;;19.37;13.30;;;-0.20;99.90;;;;;;5097287;28;20520;-55
2022/12/15 00:46:56;;;;;;;18.45;11.85;;;-0.30;99.90;;;;;;5096948;28;20421;-55
2022/12/15 01:22:23;;;;;;;19.17;12.82;;;-0.10;99.90;;;;;;5098523;28;20393;-52
2022/12/15 01:24:52;;;;;;;20.05;13.25;;;-0.30;99.90;;;;;;5098476;28;20426;-54
2022/12/15 01:27:20;;;;;;;19.48;13.10;;;-0.40;99.90;;;;;;5098353;28;20446;-56
2022/12/15 01:29:47;;;;;;;19.40;12.53;;;-0.50;99.90;;;;;;5098793;28;20899;-55
2022/12/15 01:32:14;;;;;;;19.38;13.02;;;-0.50;99.90;;;;;;5098522;28;20441;-54
2022/12/15 01:34:41;;;;;;;17.33;12.98;;;-0.40;99.90;;;;;;5099006;28;20425;-55
2022/12/15 01:37:08;;;;;;;18.23;12.70;;;-0.40;99.90;;;;;;5098553;28;20418;-55
2022/12/15 01:42:21;;;;;;;20.13;13.80;;;-0.40;99.90;;;;;;5098347;28;20409;-52
2022/12/15 01:44:51;;;;;;;17.70;11.18;;;-0.40;99.90;;;;;;5098592;28;20857;-53
2022/12/15 01:47:22;;;;;;;18.33;12.65;;;-0.40;99.90;;;;;;5097655;28;20410;-53
2022/12/15 01:49:50;;;;;;;18.13;12.87;;;-0.40;99.90;;;;;;5098279;28;20466;-54
2022/12/15 01:52:18;;;;;;;18.33;12.37;;;-0.30;99.90;;;;;;5097085;28;20489;-55
2022/12/15 01:54:49;;;;;;;16.77;11.90;;;-0.20;99.90;;;;;;5097903;28;20434;-55
2022/12/15 01:57:22;;;;;;;18.58;12.95;;;-0.10;99.90;;;;;;5098131;28;20471;-57
2022/12/15 01:59:56;;;;;;;20.85;12.77;;;-0.10;99.90;;;;;;5098600;28;20469;-57
2022/12/15 02:02:26;;;;;;;19.30;13.20;;;-0.20;99.90;;;;;;5098043;28;20433;-52
2022/12/15 02:04:56;;;;;;;18.77;12.70;;;-0.20;99.90;;;;;;5097030;28;20863;-58
2022/12/15 02:07:23;;;;;;;19.30;13.25;;;-0.10;99.90;;;;;;5096473;28;20428;-55
2022/12/15 02:09:53;;;;;;;20.38;12.55;;;0.00;99.90;;;;;;5076001;28;20463;-55
2022/12/15 02:12:33;;;;;;;20.23;13.50;;;0.00;99.90;;;;;;5077287;28;20515;-54
2022/12/15 02:15:17;;;;;;;20.20;12.83;;;0.00;99.90;;;;;;5077370;28;20446;-54
2022/12/15 02:17:56;;;;;;;20.88;13.40;;;0.10;99.90;;;;;;5077480;28;20476;-55
2022/12/15 02:20:42;;;;;;;20.58;13.57;;;0.20;99.90;;;;;;5077523;28;20518;-55
2022/12/15 02:23:59;;;;;;;18.93;13.87;;;0.20;99.90;;;;;;5077321;28;20463;-51
2022/12/15 02:27:00;;;;;;;19.88;12.93;;;0.00;99.90;;;;;;5077232;28;20451;-56
2022/12/15 02:29:57;;;;;;;22.08;14.30;;;-0.40;99.90;;;;;;5076947;28;20514;-55
2022/12/15 02:32:29;;;;;;;22.13;14.57;;;-0.40;99.90;;;;;;5035352;28;20835;-55
2022/12/15 02:35:01;;;;;;;20.75;14.30;;;-0.20;99.90;;;;;;5076508;28;20833;-56
2022/12/15 02:37:32;;;;;;;18.33;12.63;;;-0.20;99.90;;;;;;5076892;28;20419;-55
2022/12/15 02:39:59;;;;;;;18.48;12.80;;;-0.10;99.90;;;;;;5076958;28;21012;-54
2022/12/15 02:42:28;;;;;;;21.25;14.15;;;0.00;99.90;;;;;;5076762;28;20416;-52
2022/12/15 02:45:00;;;;;;;18.73;13.30;;;0.00;99.90;;;;;;5077405;28;20463;-54
2022/12/15 02:47:37;;;;;;;22.98;13.68;;;0.00;99.90;;;;;;5076342;28;20423;-53
2022/12/15 02:50:37;;;;;;;20.87;13.70;;;-0.20;99.90;;;;;;5076753;28;20806;-51
2022/12/15 02:53:15;;;;;;;20.60;14.00;;;-0.40;99.90;;;;;;5071255;28;20478;-50
2022/12/15 02:55:50;;;;;;;18.42;12.82;;;-0.30;99.90;;;;;;5076163;28;20420;-51
2022/12/15 02:58:27;;;;;;;22.87;14.77;;;-0.20;99.90;;;;;;5076792;28;20427;-52
2022/12/15 03:00:58;;;;;;;22.98;14.88;;;-0.20;99.90;;;;;;5076418;28;20479;-50
2022/12/15 03:03:29;;;;;;;23.08;14.40;;;-0.20;99.90;;;;;;5075329;28;20427;-53
2022/12/15 03:05:59;;;;;;;20.83;13.40;;;-0.20;99.90;;;;;;5075890;28;20851;-56
2022/12/15 03:08:26;;;;;;;22.10;13.73;;;-0.10;99.90;;;;;;5076194;28;20420;-54
2022/12/15 03:10:55;;;;;;;19.53;12.67;;;0.00;99.90;;;;;;5076817;28;20462;-52
2022/12/15 03:13:22;;;;;;;19.73;13.87;;;0.10;99.90;;;;;;5076173;28;20530;-57
2022/12/15 03:15:51;;;;;;;21.13;15.00;;;0.00;99.90;;;;;;5075726;28;20474;-56
2022/12/15 03:18:18;;;;;;;21.93;14.83;;;-0.10;99.90;;;;;;5076405;28;20799;-55
2022/12/15 03:20:46;;;;;;;20.23;13.95;;;-0.10;99.90;;;;;;5075986;28;20851;-56
2022/12/15 03:23:13;;;;;;;19.88;13.98;;;-0.10;99.90;;;;;;5076380;28;20485;-54
2022/12/15 03:25:40;;;;;;;25.10;15.10;;;-0.20;99.90;;;;;;5076186;28;20419;-56
2022/12/15 03:28:07;;;;;;;21.25;14.43;;;-0.20;99.90;;;;;;5075946;28;20428;-54
2022/12/15 03:30:34;;;;;;;23.08;15.70;;;-0.20;99.90;;;;;;5076205;28;20850;-56
2022/12/15 03:33:01;;;;;;;22.45;15.07;;;-0.20;99.90;;;;;;5075410;28;20428;-54
2022/12/15 03:35:28;;;;;;;22.95;15.38;;;0.00;99.90;;;;;;5075701;28;20455;-53
2022/12/15 03:37:56;;;;;;;22.85;14.63;;;0.10;99.90;;;;;;5075300;28;20898;-55
2022/12/15 03:40:23;;;;;;;23.05;15.15;;;0.20;99.90;;;;;;5075820;28;20478;-54
2022/12/15 03:42:50;;;;;;;26.67;17.00;;;0.10;99.90;;;;;;5075527;28;20459;-55
2022/12/15 03:45:19;;;;;;;26.27;16.63;;;-0.10;99.90;;;;;;5075704;28;20786;-56
2022/12/15 03:47:47;;;;;;;27.80;15.65;;;-0.30;99.90;;;;;;5075776;28;20478;-53
2022/12/15 03:50:16;;;;;;;22.87;15.17;;;-0.40;99.90;;;;;;5075638;28;20459;-53
2022/12/15 03:52:43;;;;;;;26.90;17.58;;;-0.40;99.90;;;;;;5075236;28;20451;-51
2022/12/15 03:55:12;;;;;;;23.02;15.60;;;-0.30;99.90;;;;;;5075556;28;20770;-55
2022/12/15 03:57:39;;;;;;;30.75;17.85;;;-0.30;99.90;;;;;;5075246;28;20416;-53
2022/12/15 04:00:07;;;;;;;28.17;16.90;;;-0.20;99.90;;;;;;5075319;28;20731;-53
2022/12/15 04:02:34;;;;;;;25.60;17.20;;;-0.30;99.90;;;;;;5075385;28;20823;-55
2022/12/15 04:05:01;;;;;;;26.02;15.18;;;-0.40;99.90;;;;;;5075307;28;20423;-57
2022/12/15 04:07:28;;;;;;;24.42;16.17;;;-0.50;99.90;;;;;;5075277;28;21043;-54
2022/12/15 04:09:55;;;;;;;24.23;16.63;;;-0.50;99.90;;;;;;5075540;28;20522;-56
2022/12/15 04:12:23;;;;;;;25.70;16.00;;;-0.60;99.90;;;;;;5075350;28;20853;-56
2022/12/15 04:14:50;;;;;;;28.33;17.20;;;-0.70;99.90;;;;;;5075496;28;20459;-56
2022/12/15 04:17:17;;;;;;;26.35;16.05;;;-0.60;99.90;;;;;;5074517;28;20420;-55
2022/12/15 04:22:28;;;;;;;26.13;16.02;;;-0.60;99.90;;;;;;5075046;28;20862;-52
2022/12/15 05:33:36;;;;;;;25.08;15.25;;;-0.40;99.90;;;;;;5078160;28;20427;-52
2022/12/15 05:36:03;;;;;;;25.33;16.17;;;-0.10;99.90;;;;;;5077856;28;20853;-54
2022/12/15 05:38:30;;;;;;;25.60;15.37;;;0.20;99.90;;;;;;5078425;28;20419;-56
2022/12/15 05:40:58;;;;;;;20.73;14.48;;;0.20;99.90;;;;;;5078437;28;20466;-54
2022/12/15 05:43:25;;;;;;;22.02;14.73;;;0.20;99.90;;;;;;5077831;28;20427;-56
2022/12/15 05:45:52;;;;;;;22.23;15.40;;;0.20;99.90;;;;;;5077842;28;20745;-54
2022/12/15 05:48:19;;;;;;;23.90;14.90;;;0.20;99.90;;;;;;5077622;28;20427;-55
2022/12/15 05:50:47;;;;;;;22.25;14.18;;;0.00;99.90;;;;;;5078045;28;20419;-53
2022/12/15 05:53:14;;;;;;;26.08;16.35;;;-0.20;99.90;;;;;;5077827;28;20496;-53
2022/12/15 05:55:41;;;;;;;27.00;15.83;;;-0.30;99.90;;;;;;5077533;28;20522;-53
2022/12/15 05:58:08;;;;;;;24.13;15.40;;;-0.40;99.90;;;;;;5077086;28;20466;-56
2022/12/15 06:00:35;;;;;;;24.85;15.70;;;-0.50;99.90;;;;;;5077217;28;20420;-54
2022/12/15 06:03:02;;;;;;;23.15;15.50;;;-0.40;99.90;;;;;;5077774;28;20505;-51
2022/12/15 06:05:29;;;;;;;22.57;14.50;;;-0.30;99.90;;;;;;5077619;28;20422;-50
2022/12/15 06:07:59;;;;;;;23.75;14.40;;;-0.40;99.90;;;;;;5076909;28;20485;-54
2022/12/15 06:10:26;;;;;;;24.20;15.82;;;-0.40;99.90;;;;;;5076997;28;20424;-53
2022/12/15 06:12:53;;;;;;;22.63;15.10;;;-0.50;99.90;;;;;;5077217;28;20839;-51
2022/12/15 06:15:20;;;;;;;23.92;15.63;;;-0.50;99.90;;;;;;5077207;28;20811;-55
2022/12/15 06:17:47;;;;;;;25.08;15.30;;;-0.30;99.90;;;;;;5094906;28;20449;-51
2022/12/15 06:20:14;;;;;;;23.83;15.32;;;-0.30;99.90;;;;;;5093311;28;20457;-55
2022/12/15 06:22:40;;;;;;;23.02;14.48;;;-0.30;99.90;;;;;;5097169;28;20466;-55
2022/12/15 06:25:09;;;;;;;22.30;13.85;;;-0.30;99.90;;;;;;5096869;28;20457;-55
2022/12/15 06:27:36;;;;;;;22.60;14.05;;;-0.20;99.90;;;;;;5093641;28;20495;-55
2022/12/15 06:30:04;;;;;;;23.35;14.20;;;-0.30;99.90;;;;;;5094630;28;20432;-56
2022/12/15 06:32:33;;;;;;;20.58;13.75;;;-0.30;99.90;;;;;;5093595;28;20421;-56
2022/12/15 06:35:00;;;;;;;21.60;13.60;;;-0.30;99.90;;;;;;5093833;28;20445;-53
2022/12/15 06:37:27;;;;;;;22.35;14.55;;;-0.40;99.90;;;;;;5093991;28;20461;-49
2022/12/15 06:39:54;;;;;;;23.80;14.38;;;-0.50;99.90;;;;;;5094108;28;20474;-53
2022/12/15 06:42:22;;;;;;;24.23;15.20;;;-0.50;99.90;;;;;;5095958;28;20864;-54
2022/12/15 06:44:49;;;;;;;24.17;14.18;;;-0.50;99.90;;;;;;5096781;28;20465;-51
2022/12/15 06:47:17;;;;;;;20.08;13.93;;;-0.40;99.90;;;;;;5096609;28;20413;-53
2022/12/15 06:49:44;;;;;;;22.65;13.70;;;-0.20;99.90;;;;;;5096860;28;20454;-55
2022/12/15 06:52:11;;;;;;;20.20;12.90;;;-0.10;99.90;;;;;;5096228;28;20422;-53
2022/12/15 06:54:38;;;;;;;18.77;12.90;;;0.00;99.90;;;;;;5096647;28;20884;-52
2022/12/15 06:57:05;;;;;;;22.17;13.48;;;-0.10;99.90;;;;;;5095831;28;20417;-55
2022/12/15 06:59:34;;;;;;;21.23;14.55;;;-0.20;99.90;;;;;;5095544;28;20426;-53
2022/12/15 07:02:00;;;;;;;26.48;15.40;;;-0.30;99.90;;;;;;5094801;28;20462;-55
2022/12/15 07:04:27;;;;;;;23.75;14.27;;;-0.30;99.90;;;;;;5095333;28;20473;-55
2022/12/15 07:06:55;;;;;;;25.27;15.70;;;-0.30;99.90;;;;;;5095240;28;20470;-54
2022/12/15 07:09:24;;;;;;;24.20;14.55;;;-0.30;99.90;;;;;;5095718;28;20535;-57
2022/12/15 07:11:51;;;;;;;25.67;16.33;;;-0.30;99.90;;;;;;5095738;28;20421;-52
2022/12/15 07:14:18;;;;;;;21.50;12.85;;;-0.30;99.90;;;;;;5095556;28;20426;-55
2022/12/15 07:16:47;;;;;;;25.10;14.85;;;-0.10;99.90;;;;;;5095976;28;20422;-53
2022/12/15 07:19:14;;;;;;;22.95;14.65;;;0.10;99.90;;;;;;5095392;28;20490;-52
2022/12/15 07:21:41;;;;;;;21.83;13.53;;;0.20;99.90;;;;;;5095012;28;20461;-52
2022/12/15 07:24:10;;;;;;;21.48;14.52;;;0.30;99.90;;;;;;5095396;28;20754;-54
2022/12/15 07:26:37;;;;;;;23.88;13.43;;;0.20;99.90;;;;;;5095461;28;20422;-57
2022/12/15 07:29:04;;;;;;;22.08;14.45;;;0.20;99.90;;;;;;5094084;28;20468;-55
2022/12/15 07:31:31;;;;;;;24.20;14.93;;;0.10;99.90;;;;;;5094617;28;20410;-57
2022/12/15 07:34:00;;;;;;;21.80;13.95;;;0.10;99.90;;;;;;5095390;28;20775;-57
2022/12/15 07:36:27;;;;;;;21.42;13.75;;;0.10;99.90;;;;;;5094837;28;20422;-57
2022/12/15 07:38:59;;;;;;;23.77;15.27;;;0.00;99.90;;;;;;5093869;28;20430;-58
2022/12/15 07:41:27;;;;;;;22.55;15.45;;;0.00;99.90;;;;;;5094266;28;20426;-57
2022/12/15 07:43:54;;;;;;;21.45;14.32;;;0.10;99.90;;;;;;5094277;28;20433;-51
2022/12/15 07:46:22;;;;;;;23.58;14.93;;;0.20;99.90;;;;;;5093347;28;20520;-58
2022/12/15 07:48:49;;;;;;;23.42;15.32;;;0.20;99.90;;;;;;5093234;28;20434;-56
2022/12/15 07:51:19;;;;;;;22.77;15.40;;;0.20;99.90;;;;;;5094626;28;20403;-55
2022/12/15 07:53:46;;;;;;;20.85;14.07;;;0.40;99.90;;;;;;5093911;28;20444;-58
2022/12/15 07:56:14;;;;;;;25.67;16.23;;;0.50;99.90;;;;;;5093862;28;20792;-57
2022/12/15 07:58:41;;;;;;;25.42;16.20;;;0.50;99.90;;;;;;5093035;28;20487;-58
2022/12/15 08:01:11;;;;;;;24.25;15.02;;;0.40;99.90;;;;;;5093561;28;20483;-58
2022/12/15 08:03:38;;;;;;;27.50;16.55;;;0.40;99.90;;;;;;5083733;28;20435;-56
2022/12/15 08:06:06;;;;;;;25.70;15.77;;;0.20;99.90;;;;;;5073602;28;20856;-58
2022/12/15 08:08:34;;;;;;;23.15;14.77;;;0.20;99.90;;;;;;5080766;28;20510;-56
2022/12/15 08:11:05;;;;;;;22.77;15.27;;;0.10;99.90;;;;;;5094397;28;20418;-62
2022/12/15 08:13:33;;;;;;;23.95;15.45;;;0.10;99.90;;;;;;5093331;28;20436;-57
2022/12/15 08:16:01;;;;;;;22.60;14.77;;;0.40;99.90;;;;;;5093757;28;20429;-56
2022/12/15 08:18:28;;;;;;;22.13;13.65;;;0.80;99.90;;;;;;5093919;28;20483;-56
2022/12/15 08:20:55;;;;;;;21.43;13.50;;;0.80;99.90;;;;;;5092980;28;20422;-54
2022/12/15 08:23:22;;;;;;;19.67;13.32;;;1.30;99.90;;;;;;5093912;28;20707;-56
2022/12/15 08:25:50;;;;;;;22.17;13.20;;;1.30;99.90;;;;;;5093681;28;20445;-49
2022/12/15 08:28:18;;;;;;;22.80;14.70;;;1.20;99.90;;;;;;5093923;28;20469;-52
2022/12/15 08:30:45;;;;;;;19.00;13.63;;;1.20;99.90;;;;;;5092921;28;20414;-52
2022/12/15 08:33:13;;;;;;;20.05;13.20;;;1.20;99.90;;;;;;5094045;28;20816;-55
2022/12/15 08:35:40;;;;;;;18.55;13.43;;;1.50;99.90;;;;;;5092639;28;20418;-55
2022/12/15 08:38:07;;;;;;;21.00;13.85;;;1.40;99.90;;;;;;5092964;28;20437;-53
2022/12/15 08:40:34;;;;;;;21.92;13.70;;;1.30;99.90;;;;;;5093590;28;20824;-53
2022/12/15 08:43:02;;;;;;;18.85;12.52;;;1.00;99.90;;;;;;5093727;28;20783;-50
2022/12/15 08:45:29;;;;;;;20.00;12.70;;;1.60;99.90;;;;;;5093519;28;20499;-51
2022/12/15 08:47:56;;;;;;;19.67;13.10;;;1.70;99.90;;;;;;5092099;28;20458;-51
2022/12/15 08:50:23;;;;;;;17.00;11.50;;;2.00;99.90;;;;;;5092092;28;20721;-50
2022/12/15 08:52:50;;;;;;;19.20;13.32;;;2.40;99.90;;;;;;5092861;28;20451;-49
2022/12/15 08:55:17;;;;;;;20.20;12.88;;;2.40;99.90;;;;;;5092723;28;20460;-55
2022/12/15 08:57:44;;;;;;;23.38;14.57;;;2.30;99.90;;;;;;5092135;28;20785;-53
2022/12/15 09:00:14;;;;;;;20.80;12.87;;;2.10;99.90;;;;;;5093425;28;20424;-50
2022/12/15 09:02:41;;;;;;;21.45;13.77;;;2.20;99.90;;;;;;5094032;28;20436;-51
2022/12/15 09:05:09;;;;;;;20.70;13.00;;;2.50;99.90;;;;;;5096655;28;20505;-54
2022/12/15 09:07:36;;;;;;;21.45;14.50;;;2.40;99.90;;;;;;5095098;28;20508;-53
2022/12/15 09:10:03;;;;;;;18.85;13.93;;;2.40;99.90;;;;;;5096338;28;20818;-49
2022/12/15 09:12:30;;;;;;;21.30;13.57;;;2.20;99.90;;;;;;5096928;28;20418;-51
2022/12/15 09:14:57;;;;;;;25.00;14.95;;;2.20;99.90;;;;;;5096826;28;20461;-50
2022/12/15 09:17:25;;;;;;;20.73;13.40;;;2.10;99.90;;;;;;5096889;28;20456;-52
2022/12/15 09:19:52;;;;;;;22.88;14.45;;;2.00;99.90;;;;;;5096963;28;20425;-51
2022/12/15 09:22:19;;;;;;;20.40;14.85;;;1.80;99.90;;;;;;5097164;28;20425;-49
2022/12/15 09:24:48;;;;;;;24.30;15.48;;;1.50;99.90;;;;;;5097390;28;20461;-52
2022/12/15 09:27:15;;;;;;;23.27;14.53;;;1.10;99.90;;;;;;5096786;28;20422;-51
2022/12/15 09:29:42;;;;;;;20.83;13.33;;;1.00;99.90;;;;;;5096811;28;20789;-54
2022/12/15 09:32:09;;;;;;;19.05;12.90;;;1.60;99.90;;;;;;5097550;28;20475;-48
2022/12/15 09:34:37;;;;;;;19.02;13.18;;;2.90;99.90;;;;;;5097323;28;20429;-47
2022/12/15 09:37:04;;;;;;;20.65;13.90;;;3.40;99.90;;;;;;5094954;28;20453;-48
2022/12/15 09:39:31;;;;;;;20.27;14.20;;;3.20;99.90;;;;;;5096318;28;20435;-51
2022/12/15 09:42:00;;;;;;;21.38;14.45;;;2.50;99.90;;;;;;5096381;28;20513;-48
2022/12/15 09:44:29;;;;;;;21.95;13.98;;;2.10;99.90;;;;;;5095284;28;20516;-48
2022/12/15 09:47:06;;;;;;;20.65;14.35;;;2.10;99.90;;;;;;5095501;28;20494;-47
2022/12/15 09:49:52;;;;;;;21.23;13.35;;;1.80;99.90;;;;;;5094727;28;20918;-51
2022/12/15 09:52:22;;;;;;;21.42;14.02;;;1.80;99.90;;;;;;5095075;28;20410;-52
2022/12/15 09:54:49;;;;;;;22.08;14.50;;;2.10;99.90;;;;;;5095151;28;20435;-46
2022/12/15 09:57:33;;;;;;;23.38;14.50;;;2.00;99.90;;;;;;5093969;28;20706;-50
2022/12/15 10:00:14;;;;;;;22.98;14.25;;;2.10;99.90;;;;;;5095324;28;20457;-48
2022/12/15 10:03:17;;;;;;;21.52;14.60;;;1.90;99.90;;;;;;5096069;28;20430;-52
2022/12/15 10:06:04;;;;;;;20.60;13.83;;;2.10;99.90;;;;;;5056540;28;20916;-51
2022/12/15 10:08:35;;;;;;;21.58;13.48;;;2.50;99.90;;;;;;5059883;28;20427;-53
2022/12/15 10:11:06;;;;;;;20.83;12.80;;;2.70;99.90;;;;;;5076458;28;20459;-52
2022/12/15 10:13:40;;;;;;;18.40;12.15;;;2.40;99.90;;;;;;5085370;28;20473;-54
2022/12/15 10:16:18;;;;;;;23.25;13.75;;;2.10;99.90;;;;;;5099033;28;20468;-54
2022/12/15 10:18:59;;;;;;;22.60;14.18;;;2.10;99.90;;;;;;5093171;28;20509;-52
2022/12/15 10:21:29;;;;;;;21.17;12.60;;;2.20;99.90;;;;;;5101922;28;20408;-46
2022/12/15 10:23:59;;;;;;;23.20;15.02;;;2.20;99.90;;;;;;5085164;28;20849;-51
2022/12/15 10:26:31;;;;;;;22.05;14.77;;;2.20;99.90;;;;;;5093388;28;20809;-50
2022/12/15 10:29:18;;;;;;;20.15;13.35;;;1.80;99.90;;;;;;5084544;28;20431;-49
2022/12/15 10:31:52;;;;;;;22.60;13.80;;;2.00;99.90;;;;;;5079201;28;20500;-49
2022/12/15 10:34:27;;;;;;;22.17;13.52;;;1.80;99.90;;;;;;5095297;28;20453;-49
2022/12/15 10:36:56;;;;;;;21.92;13.30;;;1.60;99.90;;;;;;5092155;28;20500;-48
2022/12/15 10:39:38;;;;;;;20.63;13.10;;;1.30;99.90;;;;;;5087748;28;20760;-47
2022/12/15 10:42:15;;;;;;;20.70;13.07;;;1.40;99.90;;;;;;5095393;28;20430;-49
2022/12/15 10:44:43;;;;;;;21.75;13.10;;;1.30;99.90;;;;;;5089730;28;20819;-47
2022/12/15 10:47:15;;;;;;;18.58;13.90;;;1.80;99.90;;;;;;5092881;28;20475;-53
2022/12/15 10:49:42;;;;;;;22.55;13.82;;;2.10;99.90;;;;;;5091850;28;20438;-50
2022/12/15 10:52:27;;;;;;;20.58;13.65;;;2.20;99.90;;;;;;5101776;28;20440;-48
2022/12/15 10:54:55;;;;;;;21.03;12.67;;;2.10;99.90;;;;;;5099451;28;20974;-53
2022/12/15 10:57:26;;;;;;;21.48;12.35;;;2.30;99.90;;;;;;5104732;28;20431;-48
2022/12/15 10:59:54;;;;;;;21.58;13.80;;;2.70;99.90;;;;;;5104061;28;20421;-60
2022/12/15 11:02:33;;;;;;;21.85;13.77;;;2.70;99.90;;;;;;5097414;28;20459;-51
2022/12/15 11:05:02;;;;;;;21.67;13.80;;;2.30;99.90;;;;;;5097826;28;20454;-49
2022/12/15 11:07:38;;;;;;;21.77;13.77;;;2.00;99.90;;;;;;5100112;28;20915;-47
2022/12/15 11:10:18;;;;;;;21.98;14.80;;;1.80;99.90;;;;;;5074415;28;20832;-50
2022/12/15 11:12:53;;;;;;;20.98;13.73;;;1.40;99.90;;;;;;5066617;28;20474;-53
2022/12/15 11:15:44;;;;;;;21.50;14.17;;;1.20;99.90;;;;;;5070061;28;20461;-52
2022/12/15 11:18:23;;;;;;;22.63;14.77;;;1.10;99.90;;;;;;5062473;28;20569;-49
2022/12/15 11:20:56;;;;;;;22.88;14.50;;;1.00;99.90;;;;;;5063469;28;20864;-49
2022/12/15 11:23:32;;;;;;;23.30;16.00;;;1.00;99.90;;;;;;5063347;28;20467;-52
2022/12/15 11:26:03;;;;;;;23.67;14.43;;;1.10;99.90;;;;;;5063636;28;20456;-48
2022/12/15 11:28:36;;;;;;;21.75;14.27;;;1.10;99.90;;;;;;5061447;28;20506;-50
2022/12/15 11:31:14;;;;;;;21.88;13.40;;;1.40;99.90;;;;;;5064925;28;20502;-51
2022/12/15 11:33:41;;;;;;;24.00;14.70;;;1.60;99.90;;;;;;5062658;28;20428;-48
2022/12/15 11:36:22;;;;;;;22.85;14.68;;;1.50;99.90;;;;;;5064092;28;20499;-48
2022/12/15 11:38:57;;;;;;;20.75;14.25;;;1.60;99.90;;;;;;5063960;28;20450;-50
2022/12/15 11:41:36;;;;;;;20.27;13.70;;;1.50;99.90;;;;;;5063061;28;20451;-50
2022/12/15 11:44:23;;;;;;;24.70;15.88;;;1.40;99.90;;;;;;5063383;28;20526;-49
2022/12/15 11:46:58;;;;;;;22.92;14.45;;;1.50;99.90;;;;;;5063114;28;21011;-54
2022/12/15 11:49:47;;;;;;;22.10;14.33;;;1.50;99.90;;;;;;5084054;28;20898;-51
2022/12/15 11:52:27;;;;;;;21.92;14.00;;;1.50;99.90;;;;;;5089251;28;20433;-52
2022/12/15 11:55:06;;;;;;;25.45;15.00;;;1.30;99.90;;;;;;5090404;28;20450;-50
2022/12/15 11:57:53;;;;;;;21.90;14.68;;;1.30;99.90;;;;;;5089549;28;20841;-58
2022/12/15 12:00:22;;;;;;;22.35;14.82;;;1.30;99.90;;;;;;5092308;28;20836;-50
2022/12/15 12:03:04;;;;;;;22.48;14.55;;;1.50;99.90;;;;;;5090857;28;20441;-49
2022/12/15 12:05:50;;;;;;;24.30;15.33;;;1.50;99.90;;;;;;5090298;28;21085;-52
2022/12/15 12:08:44;;;;;;;22.17;14.45;;;1.60;99.90;;;;;;5091503;28;20429;-52
2022/12/15 12:11:16;;;;;;;22.80;15.43;;;1.50;99.90;;;;;;5090510;28;20513;-53
2022/12/15 12:13:53;;;;;;;21.73;15.30;;;1.50;99.90;;;;;;5084876;28;20424;-51
2022/12/15 12:16:31;;;;;;;21.77;14.10;;;1.60;99.90;;;;;;5090516;28;20482;-52
2022/12/15 12:19:04;;;;;;;22.10;14.93;;;1.60;99.90;;;;;;5092895;28;20892;-55
2022/12/15 12:21:36;;;;;;;21.77;14.63;;;1.60;99.90;;;;;;5082025;28;20433;-51
2022/12/15 12:24:10;;;;;;;20.95;14.18;;;1.80;99.90;;;;;;5085170;28;20445;-50
2022/12/15 12:26:43;;;;;;;21.83;13.97;;;1.90;99.90;;;;;;5093415;28;20464;-53
2022/12/15 12:29:17;;;;;;;23.63;14.25;;;1.90;99.90;;;;;;5084135;28;20838;-54
2022/12/15 12:31:51;;;;;;;20.08;13.35;;;1.80;99.90;;;;;;5112324;28;20428;-54
2022/12/15 12:34:27;;;;;;;19.95;13.75;;;1.90;99.90;;;;;;5088959;28;20461;-53
2022/12/15 12:36:57;;;;;;;20.33;13.50;;;1.90;99.90;;;;;;5084762;28;20433;-55
2022/12/15 12:39:27;;;;;;;23.50;13.68;;;1.90;99.90;;;;;;5093376;28;20441;-54
2022/12/15 12:42:06;;;;;;;21.10;14.38;;;1.90;99.90;;;;;;5093600;28;20425;-53
2022/12/15 12:44:37;;;;;;;22.88;13.77;;;1.80;99.90;;;;;;5082678;28;20566;-55
2022/12/15 12:47:12;;;;;;;19.88;12.85;;;1.90;99.90;;;;;;5091134;28;20927;-56
2022/12/15 12:49:44;;;;;;;20.98;13.52;;;2.10;99.90;;;;;;5073854;28;20484;-54
2022/12/15 12:52:21;;;;;;;19.83;13.70;;;2.00;99.90;;;;;;5083373;28;20429;-54
2022/12/15 12:55:02;;;;;;;21.98;13.80;;;2.00;99.90;;;;;;5074514;28;20432;-52
2022/12/15 12:57:39;;;;;;;18.42;13.40;;;2.10;99.90;;;;;;5084769;28;20465;-51
2022/12/15 13:00:19;;;;;;;20.20;13.20;;;2.00;99.90;;;;;;5079749;28;20462;-51
2022/12/15 13:02:54;;;;;;;22.00;13.85;;;1.90;99.90;;;;;;5080336;28;20763;-50
2022/12/15 13:05:30;;;;;;;20.95;13.82;;;2.00;99.90;;;;;;5085731;28;20434;-49
2022/12/15 13:08:18;;;;;;;21.05;13.40;;;2.10;99.90;;;;;;5081580;28;20521;-51
2022/12/15 13:10:47;;;;;;;18.45;12.88;;;2.00;99.90;;;;;;5079873;28;20805;-55
2022/12/15 13:13:43;;;;;;;20.63;13.30;;;1.90;99.90;;;;;;5079281;28;20481;-52
2022/12/15 13:16:18;;;;;;;20.07;13.93;;;2.00;99.90;;;;;;5072239;28;20525;-54
2022/12/15 13:19:02;;;;;;;19.05;12.70;;;2.00;99.90;;;;;;5079182;28;20435;-55
2022/12/15 13:21:55;;;;;;;19.38;12.75;;;2.00;99.90;;;;;;5089616;28;20433;-52
2022/12/15 13:24:33;;;;;;;20.58;13.38;;;1.80;99.90;;;;;;5088699;28;20469;-51
2022/12/15 13:27:15;;;;;;;19.85;13.50;;;1.80;99.90;;;;;;5091655;28;20525;-49
2022/12/15 13:29:58;;;;;;;20.80;14.07;;;1.80;99.90;;;;;;5092587;28;20455;-50
2022/12/15 13:32:36;;;;;;;21.85;13.65;;;1.80;99.90;;;;;;5091789;28;20432;-51
2022/12/15 13:35:22;;;;;;;21.70;13.75;;;1.80;99.90;;;;;;5092314;28;20471;-51
2022/12/15 13:37:51;;;;;;;19.15;12.90;;;1.70;99.90;;;;;;5088370;28;20465;-46
2022/12/15 13:40:50;;;;;;;20.08;13.45;;;1.80;99.90;;;;;;5087868;28;20714;-49
2022/12/15 13:43:39;;;;;;;18.70;13.13;;;1.90;99.90;;;;;;5089114;28;20430;-50
2022/12/15 13:46:16;;;;;;;21.57;14.30;;;1.90;99.90;;;;;;5088826;28;20510;-50
2022/12/15 13:48:46;;;;;;;17.10;11.90;;;1.70;99.90;;;;;;5091993;28;20429;-48
2022/12/15 13:51:30;;;;;;;22.70;14.82;;;1.70;99.90;;;;;;5095860;28;20422;-51
2022/12/15 13:54:02;;;;;;;21.63;13.27;;;1.80;99.90;;;;;;5095730;28;20456;-47
2022/12/15 13:56:48;;;;;;;20.45;12.63;;;1.80;99.90;;;;;;5096106;28;20453;-52
2022/12/15 13:59:29;;;;;;;20.85;13.88;;;1.90;99.90;;;;;;5095793;28;20798;-49
2022/12/15 14:01:57;;;;;;;19.35;13.07;;;1.80;99.90;;;;;;5096149;28;20443;-51
2022/12/15 14:04:24;;;;;;;22.92;13.55;;;1.60;99.90;;;;;;5096424;28;20465;-49
2022/12/15 14:06:54;;;;;;;20.27;11.70;;;1.60;99.90;;;;;;5093828;28;20561;-51
2022/12/15 14:09:25;;;;;;;20.63;13.13;;;1.60;99.90;;;;;;5095088;28;20461;-50
2022/12/15 14:11:52;;;;;;;21.13;12.98;;;1.70;99.90;;;;;;5092852;28;20464;-52
2022/12/15 14:14:22;;;;;;;19.23;11.47;;;1.70;99.90;;;;;;5078986;28;20790;-50
2022/12/15 14:16:55;;;;;;;18.88;11.98;;;1.70;99.90;;;;;;5079170;28;20463;-54
2022/12/15 14:19:24;;;;;;;19.58;13.13;;;1.70;99.90;;;;;;5094575;28;20840;-51
2022/12/15 14:21:53;;;;;;;21.10;13.13;;;1.60;99.90;;;;;;5094540;28;20535;-52
2022/12/15 14:24:26;;;;;;;19.73;11.88;;;1.50;99.90;;;;;;5094182;28;20896;-52
2022/12/15 14:26:54;;;;;;;17.08;11.05;;;1.60;99.90;;;;;;5092835;28;20518;-50
2022/12/15 14:29:21;;;;;;;20.47;12.20;;;1.80;99.90;;;;;;5093822;28;20802;-50
2022/12/15 14:31:51;;;;;;;17.02;10.80;;;1.90;99.90;;;;;;5093581;28;20853;-51
2022/12/15 14:34:32;;;;;;;20.08;12.93;;;1.90;99.90;;;;;;5092615;28;20441;-48
2022/12/15 14:37:02;;;;;;;21.48;12.48;;;1.90;99.90;;;;;;5091113;28;20807;-53
2022/12/15 14:39:36;;;;;;;18.25;12.00;;;1.80;99.90;;;;;;5090076;28;20504;-48
2022/12/15 14:42:04;;;;;;;17.65;11.60;;;1.70;99.90;;;;;;5090300;28;21078;-53
2022/12/15 14:44:35;;;;;;;16.55;11.30;;;1.80;99.90;;;;;;5090151;28;20430;-51
2022/12/15 14:47:08;;;;;;;20.15;11.75;;;1.70;99.90;;;;;;5090359;28;20449;-47
2022/12/15 14:49:40;;;;;;;19.58;12.43;;;1.70;99.90;;;;;;5092241;28;20465;-49
2022/12/15 14:52:15;;;;;;;19.27;12.30;;;1.60;99.90;;;;;;5092041;28;20488;-49
2022/12/15 14:54:51;;;;;;;21.20;12.80;;;1.70;99.90;;;;;;5090148;28;20446;-50
2022/12/15 14:57:22;;;;;;;19.30;11.77;;;1.60;99.90;;;;;;5092993;28;20738;-49
2022/12/15 14:59:51;;;;;;;22.25;13.90;;;1.50;99.90;;;;;;5090907;28;20688;-50
2022/12/15 15:02:21;;;;;;;21.65;12.82;;;1.50;99.90;;;;;;5099184;28;20528;-47
2022/12/15 15:05:06;;;;;;;21.10;12.70;;;1.40;99.90;;;;;;5092601;28;20913;-51
2022/12/15 15:07:35;;;;;;;18.65;11.20;;;1.50;99.90;;;;;;5093100;28;20433;-48
2022/12/15 15:10:02;;;;;;;17.42;11.43;;;1.40;99.90;;;;;;5093278;28;20417;-50
2022/12/15 15:12:44;;;;;;;19.15;12.27;;;1.50;99.90;;;;;;5093414;28;20457;-51
2022/12/15 15:15:15;;;;;;;20.23;12.85;;;1.50;99.90;;;;;;5093400;28;20409;-51
2022/12/15 15:17:49;;;;;;;20.23;11.30;;;1.70;99.90;;;;;;5101090;28;20420;-50
2022/12/15 15:20:22;;;;;;;18.00;11.05;;;1.90;99.90;;;;;;5094564;28;20802;-50
2022/12/15 15:23:10;;;;;;;19.25;11.80;;;1.90;99.90;;;;;;5082025;28;20528;-54